Time;durP1;ratioP1;P1;durP2;ratioP2;P2;SDS_P1;SDS_P2;PMS_P1;PMS_P2;Temp;Humidity;BMP_temperature;BMP_pressure;BME280_temperature;BME280_humidity;BME280_pressure;Samples;Min_cycle;Max_cycle;Signal;HPM_P1;HPM_P2
2021/06/30 00:02:10;;;;;;;2.85;1.75;;;17.40;81.40;;;16.18;79.61;95668.78;4986444;28;20046;-68
2021/06/30 00:04:36;;;;;;;4.35;1.83;;;17.50;81.50;;;16.16;80.20;95673.50;4992909;28;20125;-68
2021/06/30 00:07:03;;;;;;;3.58;1.73;;;17.40;81.30;;;16.14;79.61;95666.81;4987154;28;20035;-68
2021/06/30 00:09:29;;;;;;;1.80;1.55;;;17.30;81.30;;;16.11;79.54;95675.25;4987063;28;20042;-68
2021/06/30 00:11:54;;;;;;;3.78;1.65;;;17.30;81.30;;;16.13;79.14;95667.88;4984729;28;20081;-68
2021/06/30 00:14:20;;;;;;;2.55;1.70;;;17.30;81.30;;;16.13;79.50;95667.88;4986115;28;20043;-68
2021/06/30 00:16:47;;;;;;;3.13;1.58;;;17.40;81.30;;;16.14;80.13;95658.88;4972831;28;20037;-68
2021/06/30 00:19:13;;;;;;;2.75;1.40;;;17.40;80.90;;;16.14;79.07;95654.38;4953503;28;20050;-69
2021/06/30 00:21:39;;;;;;;1.80;1.30;;;17.40;80.40;;;16.15;79.45;95655.97;4967003;28;20034;-68
2021/06/30 00:24:06;;;;;;;3.45;1.50;;;17.40;80.60;;;16.14;79.43;95657.00;4953450;28;20038;-68
2021/06/30 00:26:32;;;;;;;3.25;1.90;;;17.30;81.00;;;16.15;78.82;95649.84;4939854;28;20487;-68
2021/06/30 00:28:57;;;;;;;4.03;1.35;;;17.40;81.20;;;16.15;78.93;95649.84;4955334;28;20042;-68
2021/06/30 00:31:23;;;;;;;2.13;1.50;;;17.30;80.60;;;16.15;79.32;95652.50;4975213;28;20134;-68
2021/06/30 00:33:49;;;;;;;1.92;1.50;;;17.40;81.10;;;16.13;78.94;95651.94;4967718;28;20126;-68
2021/06/30 00:36:15;;;;;;;2.03;1.30;;;17.30;81.10;;;16.11;79.54;95657.50;4951450;28;20039;-68
2021/06/30 00:38:41;;;;;;;2.65;1.50;;;17.20;80.60;;;16.09;79.67;95653.47;4971743;28;20134;-68
2021/06/30 00:41:06;;;;;;;3.17;1.40;;;17.30;81.00;;;16.07;79.65;95645.72;4988569;28;20041;-68
2021/06/30 00:43:32;;;;;;;2.33;1.33;;;17.30;80.90;;;16.08;79.40;95644.69;4987696;28;20054;-68
2021/06/30 00:45:58;;;;;;;1.70;1.25;;;17.30;80.80;;;16.08;78.40;95643.88;5000119;28;20031;-68
2021/06/30 00:48:24;;;;;;;5.25;1.83;;;17.30;80.60;;;16.05;79.64;95639.81;4989690;28;20038;-70
2021/06/30 00:50:49;;;;;;;2.75;1.27;;;17.40;80.70;;;16.05;79.37;95631.88;4970033;28;20545;-68
2021/06/30 00:53:15;;;;;;;2.60;1.40;;;17.20;80.00;;;16.05;79.41;95631.06;4958070;28;20058;-68
2021/06/30 00:55:41;;;;;;;5.03;1.45;;;17.30;80.50;;;16.05;78.35;95636.38;4971586;28;20070;-68
2021/06/30 00:58:07;;;;;;;6.53;1.73;;;17.20;80.60;;;16.04;79.41;95648.03;4979612;28;20046;-68
2021/06/30 01:00:33;;;;;;;2.25;1.60;;;17.20;80.40;;;15.97;79.04;95642.84;4988064;28;20506;-68
2021/06/30 01:02:59;;;;;;;2.38;1.50;;;17.10;80.70;;;15.96;79.03;95645.75;4971453;28;20038;-69
2021/06/30 01:05:24;;;;;;;2.03;1.30;;;17.10;80.90;;;15.95;78.90;95649.44;4987928;28;20061;-68
2021/06/30 01:07:50;;;;;;;2.50;1.45;;;17.10;81.00;;;15.92;80.02;95656.00;4988884;28;20443;-68
2021/06/30 01:10:16;;;;;;;3.08;1.55;;;17.10;81.00;;;15.91;80.03;95647.25;4984898;28;22475;-68
2021/06/30 01:12:42;;;;;;;4.57;1.75;;;17.10;81.30;;;15.90;79.95;95650.94;4987134;28;20046;-69
2021/06/30 01:15:10;;;;;;;2.42;1.63;;;17.00;81.40;;;15.88;79.84;95645.06;4938023;28;20109;-69
2021/06/30 01:17:35;;;;;;;3.42;1.50;;;17.10;81.10;;;15.87;79.81;95656.72;4978100;28;20054;-69
2021/06/30 01:20:01;;;;;;;4.50;1.92;;;17.00;81.10;;;15.87;78.65;95661.22;4951462;28;20057;-69
2021/06/30 01:22:27;;;;;;;2.47;1.40;;;17.10;81.20;;;15.84;79.03;95665.16;4952144;28;20114;-69
2021/06/30 01:24:53;;;;;;;3.28;1.73;;;17.00;81.40;;;15.84;78.83;95681.06;4974479;28;20118;-69
2021/06/30 01:27:22;;;;;;;3.63;1.60;;;17.00;80.70;;;15.82;79.52;95688.41;4984935;28;20026;-69
2021/06/30 01:29:48;;;;;;;2.42;1.60;;;17.00;81.20;;;15.80;78.65;95685.19;4955006;28;20109;-69
2021/06/30 01:32:14;;;;;;;2.00;1.50;;;17.00;81.30;;;15.81;79.90;95686.81;4985515;28;20039;-69
2021/06/30 01:34:40;;;;;;;3.80;1.70;;;17.00;81.20;;;15.80;78.66;95681.72;4986908;28;20061;-69
2021/06/30 01:37:06;;;;;;;7.07;2.00;;;16.90;80.90;;;15.75;79.40;95676.31;4974798;28;20096;-69
2021/06/30 01:39:31;;;;;;;3.53;1.75;;;16.70;81.80;;;15.76;79.32;95667.31;4970686;28;20139;-69
2021/06/30 01:41:57;;;;;;;2.50;1.58;;;16.90;82.00;;;15.78;80.24;95665.25;4962195;28;20045;-69
2021/06/30 01:44:23;;;;;;;2.33;1.80;;;17.00;81.60;;;15.77;79.84;95669.75;4988618;28;20058;-69
2021/06/30 01:46:49;;;;;;;3.65;1.60;;;17.00;81.70;;;15.78;79.12;95683.81;4987143;28;20524;-69
2021/06/30 01:49:15;;;;;;;6.07;2.65;;;16.90;81.50;;;15.74;79.36;95693.28;4983635;28;20097;-70
2021/06/30 01:51:40;;;;;;;2.53;2.08;;;16.80;82.20;;;15.71;79.44;95685.78;5001407;28;20050;-69
2021/06/30 01:54:12;;;;;;;2.50;1.65;;;16.80;82.10;;;15.68;79.66;95692.34;4955589;28;20038;-69
2021/06/30 01:56:38;;;;;;;4.25;2.13;;;16.80;82.20;;;15.67;80.27;95693.41;4986189;28;20030;-69
2021/06/30 01:59:13;;;;;;;2.92;1.77;;;16.70;82.40;;;15.65;81.10;95699.97;4988231;28;20033;-69
2021/06/30 02:01:40;;;;;;;3.17;2.00;;;16.80;82.60;;;15.64;80.05;95704.47;4990865;28;20034;-69
2021/06/30 02:04:06;;;;;;;5.47;1.98;;;16.70;82.50;;;15.64;79.93;95712.41;4954821;28;20034;-69
2021/06/30 02:06:41;;;;;;;3.42;2.30;;;16.80;82.80;;;15.61;81.45;95721.63;4968032;28;20379;-70
2021/06/30 02:09:10;;;;;;;3.35;2.25;;;16.60;83.00;;;15.56;80.59;95720.66;4955755;28;21247;-69
2021/06/30 02:11:36;;;;;;;3.38;2.25;;;16.60;83.40;;;15.48;81.42;95724.47;4987640;28;20563;-69
2021/06/30 02:14:01;;;;;;;2.50;2.30;;;16.40;84.10;;;15.45;80.56;95719.63;4951345;28;20034;-69
2021/06/30 02:16:27;;;;;;;7.10;2.75;;;16.40;84.40;;;15.43;82.21;95723.53;4986436;28;20047;-70
2021/06/30 02:18:53;;;;;;;4.18;2.47;;;16.40;84.50;;;15.42;81.80;95717.44;4970532;28;20066;-70
2021/06/30 02:21:19;;;;;;;3.72;2.70;;;16.50;84.50;;;15.42;80.91;95725.38;4992578;28;20159;-70
2021/06/30 02:23:45;;;;;;;3.42;2.53;;;16.50;84.40;;;15.40;82.53;95722.16;4970531;28;20034;-69
2021/06/30 02:26:11;;;;;;;4.55;2.42;;;16.50;84.40;;;15.38;82.08;95734.00;4969868;28;20038;-69
2021/06/30 02:28:36;;;;;;;4.10;2.53;;;16.50;84.50;;;15.39;81.80;95746.22;4971176;28;20034;-70
2021/06/30 02:31:02;;;;;;;4.80;2.55;;;16.60;84.20;;;15.37;82.80;95753.59;4985215;28;20494;-69
2021/06/30 02:33:28;;;;;;;2.92;2.58;;;16.50;84.20;;;15.38;81.83;95752.53;4985153;28;20038;-69
2021/06/30 02:35:54;;;;;;;3.60;2.08;;;16.50;84.40;;;15.37;81.12;95750.94;4968559;28;20116;-69
2021/06/30 02:38:20;;;;;;;2.63;2.20;;;16.50;84.40;;;15.35;82.45;95740.56;4965813;28;20038;-68
2021/06/30 02:40:46;;;;;;;2.75;2.03;;;16.40;84.40;;;15.31;82.71;95750.81;4966256;28;20027;-69
2021/06/30 02:43:11;;;;;;;3.22;2.00;;;16.30;84.10;;;15.30;82.09;95743.09;4970148;28;20041;-69
2021/06/30 02:45:37;;;;;;;3.40;2.00;;;16.50;84.30;;;15.28;82.62;95743.31;4956602;28;20030;-69
2021/06/30 02:48:03;;;;;;;2.38;1.60;;;16.30;83.80;;;15.22;80.99;95752.19;4943170;28;20035;-69
2021/06/30 02:50:29;;;;;;;4.57;1.48;;;16.10;83.90;;;15.16;81.47;95758.38;4972663;28;20042;-68
2021/06/30 02:52:54;;;;;;;3.20;1.50;;;16.10;84.00;;;15.13;81.85;95769.41;4943373;28;20085;-68
2021/06/30 02:55:21;;;;;;;2.88;1.27;;;16.10;84.00;;;15.12;81.91;95765.16;4975628;28;20460;-68
2021/06/30 02:57:47;;;;;;;1.80;1.20;;;16.10;83.00;;;15.08;81.84;95763.19;4958475;28;20498;-68
2021/06/30 03:00:22;;;;;;;2.70;1.20;;;16.10;83.40;;;15.04;81.22;95770.78;4972321;28;20487;-68
2021/06/30 03:02:48;;;;;;;2.97;1.02;;;16.10;83.80;;;15.00;80.42;95767.78;4988491;28;20797;-68
2021/06/30 03:05:14;;;;;;;1.30;0.90;;;16.00;83.50;;;14.97;80.79;95773.53;4989989;28;20034;-68
2021/06/30 03:07:39;;;;;;;1.67;1.00;;;15.90;83.50;;;14.92;80.63;95781.31;4973914;28;20042;-68
2021/06/30 03:10:07;;;;;;;1.00;0.90;;;15.90;83.80;;;14.92;81.26;95777.84;4983924;28;20042;-68
2021/06/30 03:12:34;;;;;;;2.88;1.00;;;15.90;83.30;;;14.88;80.39;95785.44;4970221;28;20064;-68
2021/06/30 03:15:00;;;;;;;1.20;0.98;;;15.80;83.20;;;14.82;81.95;95793.47;4969770;28;20506;-68
2021/06/30 03:17:25;;;;;;;1.60;0.70;;;15.70;83.80;;;14.80;81.17;95795.53;4989453;28;20046;-68
2021/06/30 03:19:51;;;;;;;0.88;0.65;;;15.80;83.70;;;14.75;81.29;95798.84;4977136;28;20150;-68
2021/06/30 03:22:17;;;;;;;2.35;0.60;;;15.80;83.70;;;14.72;80.95;95788.72;4938988;28;20039;-68
2021/06/30 03:24:43;;;;;;;1.60;0.40;;;15.70;83.60;;;14.63;81.37;95780.25;4986621;28;20128;-68
2021/06/30 03:27:08;;;;;;;0.50;0.30;;;15.50;83.80;;;14.59;81.11;95789.66;4991792;28;20038;-68
2021/06/30 03:29:34;;;;;;;1.23;0.30;;;15.40;83.80;;;14.50;81.00;95793.66;4982606;28;20034;-68
2021/06/30 03:32:00;;;;;;;0.52;0.40;;;15.30;84.50;;;14.44;81.88;95799.00;4988519;28;20065;-68
2021/06/30 03:34:26;;;;;;;0.98;0.40;;;15.30;84.10;;;14.38;81.21;95805.94;4971664;28;20042;-67
2021/06/30 03:36:52;;;;;;;0.55;0.28;;;15.20;84.10;;;14.31;80.58;95807.88;4971709;28;20101;-68
2021/06/30 03:39:18;;;;;;;0.30;0.20;;;15.10;84.60;;;14.27;81.98;95790.81;4970594;28;20350;-68
2021/06/30 03:41:43;;;;;;;0.40;0.20;;;15.20;84.30;;;14.25;81.56;95793.66;4989321;28;20038;-70
2021/06/30 03:44:09;;;;;;;0.57;0.40;;;15.20;84.50;;;14.24;81.09;95785.94;4986821;28;20038;-70
2021/06/30 03:46:35;;;;;;;2.05;0.40;;;15.20;83.80;;;14.21;82.01;95781.09;4980691;28;20039;-65
2021/06/30 03:49:01;;;;;;;1.05;0.40;;;15.10;84.10;;;14.23;81.20;95784.31;4968695;28;20058;-67
2021/06/30 03:51:26;;;;;;;0.68;0.40;;;15.20;84.10;;;14.22;81.69;95794.09;4969918;28;20482;-67
2021/06/30 03:53:52;;;;;;;0.63;0.20;;;15.20;83.90;;;14.21;82.30;95791.66;4971848;28;20527;-67
2021/06/30 03:56:24;;;;;;;0.95;0.30;;;15.20;84.20;;;14.17;81.66;95793.94;4966604;28;20460;-70
2021/06/30 03:58:53;;;;;;;0.60;0.30;;;15.10;83.80;;;14.12;82.34;95803.56;4952697;28;20039;-69
2021/06/30 04:01:20;;;;;;;0.85;0.30;;;15.00;84.10;;;14.07;82.23;95801.59;4968884;28;20039;-69
2021/06/30 04:03:49;;;;;;;0.85;0.30;;;15.00;83.70;;;14.02;81.59;95804.84;4952922;28;20118;-68
2021/06/30 04:06:15;;;;;;;1.35;0.30;;;15.00;84.20;;;13.97;81.57;95799.41;4953866;28;20039;-68
2021/06/30 04:08:40;;;;;;;0.93;0.30;;;14.90;84.20;;;13.93;81.16;95806.16;4969922;28;20376;-68
2021/06/30 04:11:06;;;;;;;2.03;0.28;;;14.90;83.90;;;13.95;81.61;95804.13;4921533;28;20464;-70
2021/06/30 04:13:32;;;;;;;0.75;0.17;;;14.90;84.00;;;13.93;81.39;95795.59;4953966;28;20058;-69
2021/06/30 04:15:58;;;;;;;0.70;0.30;;;15.00;84.10;;;13.94;81.55;95807.78;4937272;28;20031;-70
2021/06/30 04:18:24;;;;;;;0.68;0.40;;;15.00;83.80;;;13.93;81.02;95800.88;4976805;28;20435;-69
2021/06/30 04:20:49;;;;;;;1.00;0.30;;;15.00;84.10;;;13.94;82.05;95802.50;4973456;28;20038;-69
2021/06/30 04:23:15;;;;;;;0.93;0.30;;;15.00;84.20;;;13.96;81.93;95797.81;4953807;28;20375;-69
2021/06/30 04:25:41;;;;;;;0.77;0.20;;;15.10;83.70;;;13.96;81.07;95794.34;4976186;28;20042;-65
2021/06/30 04:28:06;;;;;;;0.35;0.30;;;15.10;83.50;;;13.94;81.39;95796.41;4973497;28;20162;-66
2021/06/30 04:30:32;;;;;;;0.52;0.20;;;15.10;84.10;;;13.96;81.85;95805.72;4974259;28;20035;-66
2021/06/30 04:32:58;;;;;;;1.17;0.73;;;15.10;84.20;;;13.97;81.40;95802.06;4950674;28;20042;-67
2021/06/30 04:35:24;;;;;;;1.67;1.10;;;15.10;83.30;;;13.99;81.35;95800.00;4967799;28;20418;-65
2021/06/30 04:37:50;;;;;;;1.23;0.80;;;15.10;83.40;;;13.98;81.78;95793.09;4969296;28;20023;-66
2021/06/30 04:40:16;;;;;;;0.22;0.20;;;15.10;83.30;;;13.96;81.64;95789.88;4953348;28;20040;-65
2021/06/30 04:42:41;;;;;;;4.00;2.67;;;15.10;83.00;;;14.00;81.32;95798.97;4971131;28;20511;-64
2021/06/30 04:45:07;;;;;;;10.20;6.45;;;15.20;83.40;;;14.05;82.48;95801.81;4970592;28;20050;-65
2021/06/30 04:47:33;;;;;;;1.33;0.68;;;15.40;83.40;;;14.09;81.17;95800.34;4972480;28;20124;-66
2021/06/30 04:49:59;;;;;;;1.00;0.60;;;15.30;83.20;;;14.15;82.50;95808.41;4988168;28;20034;-66
2021/06/30 04:52:25;;;;;;;1.77;1.00;;;15.40;83.20;;;14.21;81.82;95796.97;4987460;28;20108;-65
2021/06/30 04:54:50;;;;;;;2.00;1.08;;;15.50;82.80;;;14.26;82.46;95797.13;4968019;28;20031;-66
2021/06/30 04:57:16;;;;;;;0.90;0.40;;;15.60;82.30;;;14.30;81.33;95803.59;4977217;28;20133;-68
2021/06/30 04:59:42;;;;;;;4.05;0.20;;;15.60;81.90;;;14.31;80.62;95805.22;4975336;28;20031;-65
2021/06/30 05:02:08;;;;;;;0.50;0.22;;;15.60;81.60;;;14.31;81.29;95813.16;4973920;28;20039;-65
2021/06/30 05:04:33;;;;;;;0.75;0.30;;;15.50;80.80;;;14.33;80.62;95806.63;4968378;28;20545;-67
2021/06/30 05:06:59;;;;;;;0.22;0.17;;;15.60;81.90;;;14.37;80.77;95810.44;4981391;28;20080;-67
2021/06/30 05:09:25;;;;;;;1.05;0.20;;;15.70;81.60;;;14.37;80.44;95801.69;4956704;28;20706;-66
2021/06/30 05:11:50;;;;;;;3.13;0.77;;;15.60;81.20;;;14.40;80.45;95796.75;4952860;28;20514;-69
2021/06/30 05:14:16;;;;;;;0.70;0.60;;;15.60;81.60;;;14.43;80.92;95790.25;4967773;28;20404;-66
2021/06/30 05:16:42;;;;;;;2.47;0.30;;;15.70;80.70;;;14.41;80.38;95789.63;4970316;28;20039;-69
2021/06/30 05:19:09;;;;;;;2.80;0.88;;;15.60;79.90;;;14.44;79.59;95786.56;4952267;28;20051;-69
2021/06/30 05:21:34;;;;;;;1.73;0.82;;;15.70;79.50;;;14.46;80.26;95787.16;4953347;28;20057;-69
2021/06/30 05:24:00;;;;;;;1.45;0.77;;;15.80;80.10;;;14.51;79.30;95789.97;4957580;28;20042;-68
2021/06/30 05:26:26;;;;;;;0.20;0.20;;;15.90;80.50;;;14.51;79.47;95797.91;4954315;28;20066;-69
2021/06/30 05:28:52;;;;;;;2.30;1.13;;;15.70;78.80;;;14.50;78.70;95796.28;4983338;28;20074;-71
2021/06/30 05:31:17;;;;;;;4.88;3.08;;;15.70;79.20;;;14.53;79.50;95801.16;4963785;28;20125;-69
2021/06/30 05:33:43;;;;;;;0.52;0.30;;;15.90;79.50;;;14.52;78.26;95804.81;4962228;28;20038;-69
2021/06/30 05:36:09;;;;;;;0.47;0.30;;;15.80;78.80;;;14.50;79.46;95798.94;4954385;28;20105;-68
2021/06/30 05:38:35;;;;;;;0.15;0.15;;;15.80;78.50;;;14.48;78.33;95793.03;4977490;28;20113;-69
2021/06/30 05:41:01;;;;;;;0.63;0.20;;;15.80;78.40;;;14.56;77.30;95798.06;4986805;28;20034;-69
2021/06/30 05:43:28;;;;;;;0.50;0.30;;;16.00;77.70;;;14.58;77.34;95789.88;4969509;28;20035;-69
2021/06/30 05:45:54;;;;;;;0.88;0.30;;;16.00;77.90;;;14.62;78.53;95797.16;4959581;28;20063;-69
2021/06/30 05:48:20;;;;;;;0.25;0.20;;;16.00;77.90;;;14.61;76.69;95800.84;4936653;28;20070;-69
2021/06/30 05:50:45;;;;;;;0.95;0.30;;;15.80;76.90;;;14.56;76.26;95799.88;5004152;28;20034;-72
2021/06/30 05:53:11;;;;;;;0.35;0.20;;;15.70;76.90;;;14.51;77.46;95794.47;5002591;28;20041;-70
2021/06/30 05:55:37;;;;;;;0.10;0.10;;;15.70;77.80;;;14.54;77.66;95797.47;4971530;28;20113;-66
2021/06/30 05:58:03;;;;;;;0.47;0.20;;;15.80;77.30;;;14.58;76.49;95793.34;4993514;28;20034;-67
2021/06/30 06:00:28;;;;;;;0.65;0.30;;;15.90;77.90;;;14.62;77.59;95796.34;4974991;28;20050;-65
2021/06/30 06:02:54;;;;;;;2.10;1.05;;;16.00;77.60;;;14.65;77.11;95788.78;4979721;28;20039;-70
2021/06/30 06:05:20;;;;;;;1.30;0.47;;;16.10;77.70;;;14.74;76.76;95796.44;4973964;28;20031;-68
2021/06/30 06:07:46;;;;;;;0.35;0.30;;;16.10;78.00;;;14.77;77.70;95791.50;4984244;28;20058;-71
2021/06/30 06:10:11;;;;;;;2.90;0.30;;;16.30;77.20;;;14.84;77.51;95802.00;4969570;28;20379;-71
2021/06/30 06:12:38;;;;;;;1.40;0.50;;;16.40;77.10;;;14.93;77.18;95792.69;4998781;28;20057;-66
2021/06/30 06:15:08;;;;;;;1.83;1.08;;;16.50;75.90;;;15.01;76.39;95792.41;4977352;28;20522;-66
2021/06/30 06:17:34;;;;;;;5.10;4.07;;;16.50;75.70;;;15.09;76.50;95799.22;4970079;28;20503;-66
2021/06/30 06:19:59;;;;;;;2.85;1.40;;;16.70;75.70;;;15.17;76.01;95794.44;4977614;28;20058;-65
2021/06/30 06:22:25;;;;;;;0.32;0.30;;;16.80;75.60;;;15.25;75.19;95794.13;5005065;28;20046;-65
2021/06/30 06:24:51;;;;;;;1.08;0.30;;;16.70;74.50;;;15.31;76.04;95795.84;4972849;28;20039;-66
2021/06/30 06:27:17;;;;;;;0.28;0.28;;;16.90;74.70;;;15.39;75.62;95785.97;4971482;28;20051;-66
2021/06/30 06:29:43;;;;;;;2.55;1.50;;;16.90;74.40;;;15.48;74.80;95776.66;4972744;28;20062;-66
2021/06/30 06:32:08;;;;;;;1.20;0.80;;;17.10;75.10;;;15.55;75.99;95777.38;4971747;28;20053;-69
2021/06/30 06:34:34;;;;;;;3.35;1.20;;;17.10;74.10;;;15.57;75.65;95776.09;4971801;28;20066;-68
2021/06/30 06:37:01;;;;;;;1.70;0.85;;;17.00;73.80;;;15.61;74.86;95787.09;4971243;28;20039;-66
2021/06/30 06:39:27;;;;;;;0.65;0.30;;;17.00;73.80;;;15.66;74.48;95792.53;4955546;28;20108;-69
2021/06/30 06:41:53;;;;;;;1.42;0.20;;;17.10;74.40;;;15.74;74.39;95791.38;4971450;28;20034;-66
2021/06/30 06:44:18;;;;;;;1.10;0.30;;;17.30;73.50;;;15.83;74.89;95788.16;4970253;28;20054;-68
2021/06/30 06:46:44;;;;;;;1.45;0.40;;;17.60;73.50;;;15.96;74.31;95781.03;4955644;28;20427;-69
2021/06/30 06:49:10;;;;;;;0.95;0.35;;;17.80;72.30;;;16.04;73.80;95793.94;4971399;28;20046;-69
2021/06/30 06:51:39;;;;;;;0.32;0.10;;;17.70;72.00;;;16.08;72.01;95795.13;4971708;28;20082;-70
2021/06/30 06:54:05;;;;;;;0.22;0.20;;;17.50;69.40;;;16.10;73.46;95801.81;4955501;28;20042;-70
2021/06/30 06:56:31;;;;;;;1.58;0.20;;;17.60;70.80;;;16.21;73.10;95794.88;4971754;28;20038;-70
2021/06/30 06:58:56;;;;;;;0.95;0.20;;;17.90;70.70;;;16.25;72.61;95793.38;4952169;28;20039;-71
2021/06/30 07:01:22;;;;;;;2.20;0.10;;;18.10;68.90;;;16.45;71.78;95793.81;4955210;28;20463;-70
2021/06/30 07:03:48;;;;;;;7.03;3.92;;;18.60;67.30;;;16.72;72.25;95793.31;4955929;28;20050;-70
2021/06/30 07:06:14;;;;;;;2.42;0.77;;;19.10;67.60;;;17.00;71.35;95798.69;4971033;28;20046;-70
2021/06/30 07:08:40;;;;;;;5.25;2.97;;;19.40;63.80;;;17.34;70.70;95796.13;4973096;28;20127;-70
2021/06/30 07:11:08;;;;;;;1.05;0.60;;;19.80;62.90;;;17.59;69.00;95801.88;4971035;28;20050;-69
2021/06/30 07:13:35;;;;;;;0.20;0.20;;;20.00;60.90;;;17.83;68.65;95801.78;4971780;28;20479;-71
2021/06/30 07:16:01;;;;;;;0.32;0.20;;;20.10;60.70;;;18.04;67.62;95801.84;4970970;28;20119;-70
2021/06/30 07:18:26;;;;;;;0.60;0.28;;;20.40;59.10;;;18.33;67.21;95807.91;4954767;28;20204;-69
2021/06/30 07:20:52;;;;;;;0.28;0.10;;;21.00;57.50;;;18.64;65.82;95803.00;4970821;28;20065;-71
2021/06/30 07:23:18;;;;;;;0.25;0.25;;;21.30;56.90;;;18.93;65.74;95808.97;4972539;28;20034;-70
2021/06/30 07:25:44;;;;;;;3.80;1.67;;;21.60;55.60;;;19.27;65.26;95802.44;4955259;28;20031;-70
2021/06/30 07:28:09;;;;;;;6.00;2.63;;;22.10;54.00;;;19.52;64.03;95809.09;4954490;28;20475;-69
2021/06/30 07:30:36;;;;;;;1.70;0.90;;;22.00;54.30;;;19.71;63.98;95788.22;4970829;28;20026;-71
2021/06/30 07:33:02;;;;;;;2.67;2.25;;;22.00;52.60;;;19.82;63.13;95790.69;4951516;28;20031;-70
2021/06/30 07:35:28;;;;;;;2.05;1.20;;;22.30;52.00;;;19.95;62.08;95794.00;4964040;28;20149;-70
2021/06/30 07:37:54;;;;;;;1.48;1.05;;;22.40;52.00;;;20.15;61.44;95800.31;4971288;28;20050;-70
2021/06/30 07:40:19;;;;;;;0.40;0.30;;;22.20;49.60;;;20.22;60.44;95800.09;4986299;28;20035;-70
2021/06/30 07:42:45;;;;;;;1.75;0.47;;;21.90;49.20;;;20.26;58.59;95798.50;4941924;28;20118;-70
2021/06/30 07:45:11;;;;;;;0.47;0.17;;;22.20;48.60;;;20.42;58.63;95794.09;4973894;28;20125;-70
2021/06/30 07:47:37;;;;;;;2.33;0.22;;;22.70;49.50;;;20.68;58.60;95782.47;4990379;28;20450;-69
2021/06/30 07:50:04;;;;;;;0.30;0.20;;;23.10;47.90;;;21.00;56.83;95787.69;4965929;28;20099;-70
2021/06/30 07:52:30;;;;;;;0.60;0.30;;;23.30;46.70;;;21.27;57.32;95779.50;4989882;28;20719;-70
2021/06/30 07:54:55;;;;;;;0.28;0.20;;;23.60;45.90;;;21.58;56.85;95776.91;4974241;28;20145;-70
2021/06/30 07:57:21;;;;;;;2.67;0.38;;;24.20;45.70;;;21.94;55.92;95772.34;4989698;28;20074;-70
2021/06/30 07:59:47;;;;;;;1.23;0.30;;;24.60;44.70;;;22.17;55.40;95779.06;4989812;28;20457;-70
2021/06/30 08:02:13;;;;;;;4.40;2.28;;;24.60;44.20;;;22.42;54.49;95779.03;4990897;28;20050;-70
2021/06/30 08:04:38;;;;;;;0.65;0.40;;;24.50;43.80;;;22.53;53.59;95777.13;4973774;28;20109;-71
2021/06/30 08:07:04;;;;;;;1.52;0.98;;;24.10;44.40;;;22.51;53.60;95773.91;4973802;28;20093;-70
2021/06/30 08:09:33;;;;;;;0.20;0.20;;;24.40;45.30;;;22.59;53.02;95779.50;4990761;28;20093;-70
2021/06/30 08:12:01;;;;;;;0.20;0.20;;;24.60;45.20;;;22.68;52.82;95778.97;4973771;28;20069;-69
2021/06/30 08:14:28;;;;;;;0.20;0.20;;;24.50;42.30;;;22.70;52.29;95787.53;4942056;28;20101;-70
2021/06/30 08:16:53;;;;;;;0.43;0.20;;;25.00;44.30;;;22.95;53.21;95792.84;4973709;28;20044;-70
2021/06/30 08:19:19;;;;;;;0.60;0.20;;;25.20;43.60;;;22.94;52.24;95782.41;4973010;28;20048;-70
2021/06/30 08:21:45;;;;;;;0.10;0.10;;;24.50;44.10;;;22.74;50.92;95777.88;4973419;28;20038;-70
2021/06/30 08:24:11;;;;;;;0.10;0.10;;;24.10;44.40;;;22.68;50.53;95787.03;5005391;28;20506;-70
2021/06/30 08:26:36;;;;;;;0.45;0.20;;;24.40;42.20;;;22.65;50.49;95785.69;4973660;28;20150;-70
2021/06/30 08:29:03;;;;;;;0.73;0.10;;;24.30;41.80;;;22.47;50.50;95792.44;4972943;28;20128;-70
2021/06/30 08:31:28;;;;;;;2.45;1.70;;;23.70;43.50;;;22.37;50.14;95792.44;4973334;28;20048;-70
2021/06/30 08:33:54;;;;;;;1.38;0.82;;;23.60;44.70;;;22.28;49.99;95810.94;4973858;28;20514;-71
2021/06/30 08:36:20;;;;;;;0.68;0.43;;;23.60;44.10;;;22.24;50.31;95801.84;4973032;28;20037;-70
2021/06/30 08:38:46;;;;;;;0.60;0.40;;;23.60;44.60;;;22.31;49.55;95804.25;4989415;28;20034;-70
2021/06/30 08:41:12;;;;;;;0.20;0.20;;;24.10;43.20;;;22.40;49.44;95801.81;4988882;28;20109;-69
2021/06/30 08:43:37;;;;;;;0.10;0.10;;;23.90;43.20;;;22.45;49.35;95802.63;4989612;28;20042;-70
2021/06/30 08:46:03;;;;;;;0.28;0.20;;;24.40;43.00;;;22.68;49.21;95798.53;4988963;28;20453;-70
2021/06/30 08:48:29;;;;;;;1.33;0.20;;;24.90;42.60;;;22.97;48.83;95793.38;4956773;28;20447;-69
2021/06/30 08:50:58;;;;;;;0.25;0.10;;;25.50;42.00;;;23.18;47.90;95794.88;4973033;28;20034;-70
2021/06/30 08:53:24;;;;;;;0.60;0.20;;;25.60;41.00;;;23.32;48.53;95787.03;4973236;28;20061;-71
2021/06/30 08:55:50;;;;;;;0.10;0.10;;;25.50;40.80;;;23.46;47.75;95787.22;4972828;28;20034;-70
2021/06/30 08:58:15;;;;;;;0.15;0.10;;;25.60;40.20;;;23.75;47.83;95790.00;4972522;28;20117;-70
2021/06/30 09:00:42;;;;;;;1.85;0.85;;;26.00;40.20;;;23.95;47.67;95799.81;4989167;28;20528;-70
2021/06/30 09:03:14;;;;;;;0.30;0.20;;;26.30;39.80;;;23.94;46.66;95799.00;4957026;28;20113;-70
2021/06/30 09:08:36;;;;;;;3.80;2.45;;;25.80;39.60;;;24.06;47.15;95795.97;4974777;28;20030;-69
2021/06/30 09:11:22;;;;;;;3.67;1.95;;;26.10;41.00;;;24.29;45.03;95797.94;4988976;28;20023;-70
2021/06/30 09:13:49;;;;;;;1.02;0.30;;;27.00;39.20;;;24.51;46.97;95804.72;4973205;28;20034;-70
2021/06/30 09:16:15;;;;;;;0.32;0.20;;;26.90;39.90;;;24.67;46.18;95806.97;4988080;28;20042;-69
2021/06/30 09:18:41;;;;;;;1.05;0.20;;;26.90;37.30;;;24.57;45.82;95807.06;4972703;28;20026;-70
2021/06/30 09:21:27;;;;;;;0.30;0.20;;;26.20;38.00;;;24.27;42.77;95810.84;4973105;28;20034;-70
2021/06/30 09:24:06;;;;;;;0.30;0.30;;;25.50;39.30;;;23.97;44.48;95813.75;4981482;28;20027;-69
2021/06/30 09:26:37;;;;;;;0.50;0.20;;;25.00;42.10;;;23.69;44.38;95818.78;4986723;28;20060;-68
2021/06/30 09:29:04;;;;;;;0.20;0.20;;;24.70;41.80;;;23.36;47.00;95814.13;4969292;28;20123;-69
2021/06/30 09:31:30;;;;;;;0.30;0.20;;;24.30;42.60;;;23.03;46.64;95821.78;4990033;28;20026;-65
2021/06/30 09:33:56;;;;;;;1.08;0.45;;;24.10;43.80;;;22.65;46.50;95814.38;4986006;28;20118;-70
2021/06/30 09:36:24;;;;;;;2.88;0.90;;;23.30;43.40;;;22.31;47.36;95823.81;4976591;28;20038;-70
2021/06/30 09:38:50;;;;;;;0.82;0.20;;;23.20;44.80;;;22.10;47.14;95824.88;4972111;28;20030;-65
2021/06/30 09:41:23;;;;;;;0.57;0.20;;;23.00;46.00;;;21.75;46.71;95820.28;4987915;28;20133;-66
2021/06/30 09:43:49;;;;;;;0.98;0.20;;;22.30;46.50;;;21.37;47.89;95817.00;4987737;28;20034;-69
2021/06/30 09:46:20;;;;;;;0.20;0.20;;;22.10;47.10;;;21.23;47.90;95831.09;4984296;28;20076;-70
2021/06/30 09:48:54;;;;;;;0.45;0.15;;;22.10;47.10;;;21.04;48.08;95825.41;5001463;28;20093;-69
2021/06/30 09:51:20;;;;;;;1.40;0.60;;;22.00;46.90;;;20.91;48.45;95825.91;4984808;28;20129;-69
2021/06/30 09:53:46;;;;;;;2.20;1.08;;;21.80;47.20;;;20.67;49.09;95823.63;4979094;28;20130;-69
2021/06/30 09:59:09;;;;;;;0.70;0.30;;;21.40;49.00;;;20.28;50.61;95832.97;4992638;28;20087;-69
2021/06/30 10:01:36;;;;;;;1.92;0.30;;;21.10;49.90;;;20.10;49.90;95834.16;4993831;28;20033;-69
2021/06/30 10:04:02;;;;;;;0.43;0.30;;;21.00;50.40;;;19.91;51.02;95819.59;4959938;28;20455;-70
2021/06/30 10:06:33;;;;;;;0.88;0.30;;;20.80;51.10;;;19.77;51.65;95829.88;4982148;28;20469;-70
2021/06/30 10:09:03;;;;;;;0.75;0.25;;;20.60;50.80;;;19.60;51.65;95823.84;4992516;28;20465;-69
2021/06/30 10:11:29;;;;;;;0.43;0.23;;;20.50;52.80;;;19.49;51.38;95818.41;5009406;28;20040;-69
2021/06/30 10:13:55;;;;;;;0.52;0.25;;;20.50;51.50;;;19.45;52.12;95817.25;4980103;28;20026;-69
2021/06/30 10:16:22;;;;;;;1.70;0.30;;;20.60;51.90;;;19.44;52.32;95813.00;4976044;28;20584;-69
2021/06/30 10:18:53;;;;;;;0.65;0.28;;;20.70;51.20;;;19.49;51.60;95812.25;4974109;28;20058;-70
2021/06/30 10:21:21;;;;;;;0.20;0.20;;;21.00;51.00;;;19.65;53.13;95806.03;4954304;28;20522;-67
2021/06/30 10:23:47;;;;;;;0.20;0.20;;;21.60;51.00;;;20.22;52.35;95804.63;4957196;28;20113;-68